| time (UTC) | temp F | wind direction | speed MPH | gust MPH | rain 1hr in | rain 24hr in | rain mn in | humidity % | barometer mb |
| 20260905164532 | 74 | 225 | 1.0 | 5.0 | 0.00 | 0.00 | 0.00 | 43 | 1006.4 |
| 20260905163028 | 73 | 268 | 2.0 | 4.0 | 0.00 | 0.00 | 0.00 | 43 | 1006.3 |
| 20260905161523 | 72 | 164 | 1.0 | 3.0 | 0.00 | 0.00 | 0.00 | 46 | 1006.3 |
| 20260905160019 | 70 | 42 | 0.0 | 2.0 | 0.00 | 0.00 | 0.00 | 46 | 1006.3 |
| 20260905154516 | 69 | 47 | 1.0 | 3.0 | 0.00 | 0.00 | 0.00 | 45 | 1006.3 |
| 20260905153017 | 68 | 48 | 2.0 | 4.0 | 0.00 | 0.00 | 0.00 | 46 | 1006.2 |
| 20260905151518 | 66 | 36 | 2.0 | 4.0 | 0.00 | 0.00 | 0.00 | 47 | 1006.2 |
| 20260905150003 | 65 | 42 | 2.0 | 5.0 | 0.00 | 0.00 | 0.00 | 49 | 1006.1 |
| 20260905144601 | 63 | 30 | 2.0 | 5.0 | 0.00 | 0.00 | 0.00 | 50 | 1005.9 |
| 20260905143103 | 62 | 40 | 1.0 | 5.0 | 0.00 | 0.00 | 0.00 | 52 | 1005.8 |
| 20260905141600 | 61 | 20 | 2.0 | 4.0 | 0.00 | 0.00 | 0.00 | 53 | 1005.8 |
| 20260905140055 | 61 | 24 | 1.0 | 5.0 | 0.00 | 0.00 | 0.00 | 53 | 1005.5 |
| 20260905134556 | 61 | 58 | 3.0 | 6.0 | 0.00 | 0.00 | 0.00 | 54 | 1005.4 |
| 20260905133058 | 60 | 44 | 1.0 | 3.0 | 0.00 | 0.00 | 0.00 | 55 | 1005.1 |
| 20260905131554 | 60 | 347 | 1.0 | 4.0 | 0.00 | 0.00 | 0.00 | 56 | 1005.0 |
| 20260905130050 | 60 | 46 | 2.0 | 5.0 | 0.00 | 0.00 | 0.00 | 57 | 1005.0 |
| 20260905124549 | 59 | 36 | 0.0 | 3.0 | 0.00 | 0.00 | 0.00 | 62 | 1005.1 |
| 20260905123059 | 59 | 33 | 2.0 | 3.0 | 0.00 | 0.00 | 0.00 | 62 | 1005.0 |
| 20260905121553 | 60 | 39 | 1.0 | 3.0 | 0.00 | 0.00 | 0.00 | 62 | 1005.0 |
| 20260905120044 | 60 | 34 | 1.0 | 4.0 | 0.00 | 0.00 | 0.00 | 63 | 1005.0 |
| 20260905114542 | 59 | 53 | 2.0 | 3.0 | 0.00 | 0.00 | 0.00 | 67 | 1005.0 |
| 20260905113041 | 59 | 57 | 1.0 | 3.0 | 0.00 | 0.00 | 0.00 | 69 | 1005.1 |
| 20260905111540 | 59 | 58 | 1.0 | 3.0 | 0.00 | 0.00 | 0.00 | 69 | 1005.2 |
| 20260905110039 | 59 | 59 | 1.0 | 4.0 | 0.00 | 0.00 | 0.00 | 70 | 1005.1 |
| 20260905104543 | 58 | 43 | 1.0 | 3.0 | 0.00 | 0.00 | 0.00 | 74 | 1005.2 |
| 20260905103037 | 58 | 41 | 1.0 | 2.0 | 0.00 | 0.00 | 0.00 | 76 | 1005.2 |
| 20260905101537 | 59 | 43 | 1.0 | 2.0 | 0.00 | 0.00 | 0.00 | 76 | 1005.2 |
| 20260905100107 | 60 | 42 | 0.0 | 3.0 | 0.00 | 0.00 | 0.00 | 74 | 1005.1 |
| 20260905094541 | 60 | 46 | 0.0 | 2.0 | 0.00 | 0.00 | 0.00 | 74 | 1005.2 |
| 20260905093027 | 61 | 48 | 0.0 | 2.0 | 0.00 | 0.00 | 0.00 | 73 | 1005.2 |
| 20260905091525 | 61 | 49 | 0.0 | 2.0 | 0.00 | 0.00 | 0.00 | 72 | 1005.3 |
| 20260905090022 | 62 | 49 | 1.0 | 3.0 | 0.00 | 0.00 | 0.00 | 72 | 1005.3 |
| 20260905084521 | 62 | 50 | 0.0 | 2.0 | 0.00 | 0.00 | 0.00 | 72 | 1005.4 |
| 20260905083018 | 63 | 53 | 0.0 | 1.0 | 0.00 | 0.00 | 0.00 | 71 | 1005.4 |
| 20260905081518 | 64 | 51 | 1.0 | 4.0 | 0.00 | 0.00 | 0.00 | 69 | 1005.2 |
| 20260905080020 | 64 | 43 | 1.0 | 3.0 | 0.00 | 0.00 | 0.00 | 70 | 1005.4 |
| 20260905074522 | 63 | 48 | 1.0 | 3.0 | 0.00 | 0.00 | 0.00 | 71 | 1005.5 |
| 20260905073013 | 63 | 40 | 1.0 | 3.0 | 0.00 | 0.00 | 0.00 | 71 | 1005.6 |
| 20260905071511 | 63 | 65 | 1.0 | 3.0 | 0.00 | 0.00 | 0.00 | 71 | 1005.5 |
| 20260905070009 | 63 | 66 | 1.0 | 3.0 | 0.00 | 0.00 | 0.00 | 71 | 1005.4 |
| 20260905064509 | 63 | 68 | 0.0 | 3.0 | 0.00 | 0.00 | 0.00 | 71 | 1005.2 |
| 20260905063007 | 63 | 73 | 1.0 | 3.0 | 0.00 | 0.00 | 0.00 | 72 | 1005.3 |
| 20260905061506 | 63 | 73 | 0.0 | 2.0 | 0.00 | 0.00 | 0.00 | 72 | 1005.2 |
| 20260905060006 | 64 | 73 | 0.0 | 3.0 | 0.00 | 0.00 | 0.00 | 71 | 1005.4 |
| 20260905054512 | 64 | 74 | 1.0 | 3.0 | 0.00 | 0.00 | 0.00 | 71 | 1005.2 |
| 20260905053004 | 64 | 167 | 0.0 | 2.0 | 0.00 | 0.00 | 0.00 | 70 | 1005.2 |
| 20260905051508 | 64 | 169 | 1.0 | 3.0 | 0.00 | 0.00 | 0.00 | 70 | 1005.2 |
| 20260905050002 | 64 | 177 | 0.0 | 2.0 | 0.00 | 0.00 | 0.00 | 69 | 1005.1 |
| 20260905044504 | 65 | 177 | 1.0 | 2.0 | 0.00 | 0.00 | 0.00 | 70 | 1005.1 |
| 20260905043003 | 66 | 177 | 1.0 | 2.0 | 0.00 | 0.00 | 0.00 | 68 | 1005.0 |
| 20260905041502 | 66 | 179 | 1.0 | 3.0 | 0.00 | 0.00 | 0.00 | 68 | 1004.8 |
| 20260905040002 | 66 | 179 | 1.0 | 2.0 | 0.00 | 0.00 | 0.00 | 67 | 1004.7 |
| 20260905034607 | 67 | 179 | 0.0 | 2.0 | 0.00 | 0.00 | 0.00 | 66 | 1004.5 |
| 20260905033059 | 68 | 179 | 1.0 | 3.0 | 0.00 | 0.00 | 0.00 | 64 | 1004.4 |
| 20260905031559 | 70 | 179 | 1.0 | 2.0 | 0.00 | 0.00 | 0.00 | 61 | 1004.2 |
| 20260905030059 | 70 | 179 | 1.0 | 3.0 | 0.00 | 0.00 | 0.00 | 59 | 1004.2 |
| 20260905024607 | 73 | 179 | 0.0 | 0.0 | 0.00 | 0.00 | 0.00 | 55 | 1004.1 |
| 20260905023057 | 74 | 179 | 0.0 | 0.0 | 0.00 | 0.00 | 0.00 | 53 | 1004.0 |
| 20260905021557 | 75 | 179 | 0.0 | 2.0 | 0.00 | 0.00 | 0.00 | 51 | 1004.1 |
| 20260905020058 | 75 | 179 | 1.0 | 4.0 | 0.00 | 0.00 | 0.00 | 50 | 1004.1 |
| 20260905014557 | 77 | 172 | 3.0 | 5.0 | 0.00 | 0.00 | 0.00 | 46 | 1004.1 |
| 20260905013101 | 78 | 177 | 2.0 | 7.0 | 0.00 | 0.00 | 0.00 | 42 | 1004.1 |
| 20260905011555 | 79 | 180 | 3.0 | 8.0 | 0.00 | 0.00 | 0.00 | 37 | 1004.2 |
| 20260905010104 | 80 | 221 | 4.0 | 7.0 | 0.00 | 0.00 | 0.00 | 34 | 1004.3 |
| 20260905004556 | 80 | 186 | 3.0 | 7.0 | 0.00 | 0.00 | 0.00 | 34 | 1004.1 |
| 20260905003053 | 81 | 173 | 2.0 | 9.0 | 0.00 | 0.00 | 0.00 | 30 | 1004.2 |
| 20260905001551 | 82 | 191 | 2.0 | 10.0 | 0.00 | 0.00 | 0.00 | 35 | 1004.2 |
| 20260905000050 | 81 | 171 | 2.0 | 9.0 | 0.00 | 0.00 | 0.00 | 41 | 1004.1 |
| 20260904234550 | 81 | 168 | 3.0 | 9.0 | 0.00 | 0.00 | 0.00 | 41 | 1004.1 |
| 20260904233048 | 81 | 200 | 2.0 | 9.0 | 0.00 | 0.00 | 0.00 | 42 | 1004.2 |
| 20260904231602 | 81 | 172 | 3.0 | 10.0 | 0.00 | 0.00 | 0.00 | 45 | 1004.1 |
| 20260904230046 | 81 | 175 | 4.0 | 9.0 | 0.00 | 0.00 | 0.00 | 44 | 1004.3 |
| 20260904224546 | 82 | 153 | 2.0 | 9.0 | 0.00 | 0.00 | 0.00 | 42 | 1004.2 |
| 20260904223045 | 82 | 190 | 4.0 | 10.0 | 0.00 | 0.00 | 0.00 | 43 | 1004.2 |
| 20260904221547 | 82 | 172 | 3.0 | 10.0 | 0.00 | 0.00 | 0.00 | 43 | 1004.3 |
| 20260904220047 | 83 | 209 | 3.0 | 10.0 | 0.00 | 0.00 | 0.00 | 40 | 1004.3 |
| 20260904214542 | 83 | 188 | 4.0 | 8.0 | 0.00 | 0.00 | 0.00 | 38 | 1004.4 |
| 20260904213044 | 83 | 162 | 2.0 | 7.0 | 0.00 | 0.00 | 0.00 | 37 | 1004.4 |
| 20260904211538 | 83 | 173 | 1.0 | 11.0 | 0.00 | 0.00 | 0.00 | 37 | 1004.5 |
| 20260904210038 | 82 | 192 | 5.0 | 10.0 | 0.00 | 0.00 | 0.00 | 40 | 1004.5 |
| 20260904204534 | 81 | 202 | 1.0 | 9.0 | 0.00 | 0.00 | 0.00 | 43 | 1004.5 |
| 20260904203042 | 81 | 178 | 2.0 | 10.0 | 0.00 | 0.00 | 0.00 | 45 | 1004.6 |
| 20260904201530 | 80 | 178 | 1.0 | 8.0 | 0.00 | 0.00 | 0.00 | 47 | 1004.8 |
| 20260904200046 | 79 | 192 | 2.0 | 6.0 | 0.00 | 0.00 | 0.00 | 49 | 1005.0 |
| 20260904194532 | 79 | 200 | 3.0 | 8.0 | 0.00 | 0.00 | 0.00 | 49 | 1005.2 |
| 20260904193025 | 79 | 190 | 3.0 | 8.0 | 0.00 | 0.00 | 0.00 | 50 | 1005.3 |
| 20260904191523 | 77 | 190 | 3.0 | 8.0 | 0.00 | 0.00 | 0.00 | 53 | 1005.4 |
| 20260904190017 | 76 | 262 | 2.0 | 8.0 | 0.00 | 0.00 | 0.00 | 55 | 1005.6 |
| 20260904184514 | 76 | 212 | 3.0 | 8.0 | 0.00 | 0.00 | 0.00 | 55 | 1005.8 |
| 20260904183010 | 74 | 240 | 1.0 | 7.0 | 0.00 | 0.00 | 0.00 | 57 | 1005.9 |
| 20260904181506 | 73 | 184 | 3.0 | 8.0 | 0.00 | 0.00 | 0.00 | 59 | 1006.0 |
| 20260904180002 | 73 | 210 | 3.0 | 6.0 | 0.00 | 0.00 | 0.00 | 59 | 1006.1 |
| 20260904174559 | 71 | 204 | 2.0 | 5.0 | 0.00 | 0.00 | 0.00 | 64 | 1005.9 |
| 20260904173105 | 70 | 220 | 1.0 | 6.0 | 0.00 | 0.00 | 0.00 | 66 | 1006.0 |
| 20260904171552 | 69 | 193 | 2.0 | 6.0 | 0.00 | 0.00 | 0.00 | 69 | 1005.8 |
| 20260904170049 | 69 | 194 | 1.0 | 5.0 | 0.00 | 0.00 | 0.00 | 70 | 1005.7 |